Latest Coastal Weather Observations for Lockhart River

IDQ60701

Issued at 2:52 pm EST Sunday 24 July 2016 (issued every 10 minutes, with the page automatically refreshed every 10 minutes)

About coastal observations | Map of coastal stations | Coastal observations for QLD | Marine services | Other Formats
Station Details ID: 028008 Name: LOCKHART RIVER AIRPORT Lat: -12.79 Lon: 143.30 Height: 18.5 m
Data from the previous 72 hours. | See also: Recent months at Lockhart River
Date/Time
EST
Temp
°C
Wind Pressure Rain since
9am
mm
Weather Cloud Vis
km
Sea
Height
m
Swell
Dir  Spd
kts
Gust
kts
hPa Trend Height
m
Period
s
Dir
24/02:30pm 28.2 ESE 13 19 1011.8 - 0.0 - Partly cloudy - - - - -
24/02:00pm 28.3 ESE 14 21 1012.0 - 0.0 - Partly cloudy - - - - -
24/01:30pm 28.5 ESE 12 18 1012.4 - 0.0 - - - - - - -
24/01:00pm 28.6 ESE 12 17 1012.8 - 0.0 - - - - - - -
24/12:30pm 28.2 ESE 13 18 1013.0 - 0.0 - - - - - - -
24/12:00pm 28.5 E 12 16 1013.4 - 0.0 - Partly cloudy - - - - -
24/11:30am 28.8 SE 14 18 1013.7 - 0.0 - Partly cloudy - - - - -
24/11:00am 28.1 ESE 11 18 1014.1 - 0.0 - - - - - - -
24/10:30am 27.2 ESE 13 19 1014.2 - 0.0 - Partly cloudy - - - - -
24/10:00am 27.6 ESE 12 16 1014.0 - 0.0 - Partly cloudy - - - - -
24/09:30am 27.0 ESE 13 18 1013.8 - 0.0 - Partly cloudy - - - - -
24/09:00am 26.2 ESE 11 18 1013.7 - 0.0 - Partly cloudy - - - - -
24/08:30am 24.3 S 4 6 1013.5 - 0.0 - - - - - - -
24/08:00am 22.1 CALM 0 0 1013.1 - 0.0 - - - - - - -
24/07:30am 20.4 CALM 0 0 1012.8 - 0.0 - - - - - - -
24/07:00am 20.1 CALM 0 0 1012.5 - 0.0 - Partly cloudy - - - - -
24/06:30am 20.0 CALM 0 0 1012.2 - 0.0 - Partly cloudy - - - - -
24/06:00am 20.4 CALM 0 0 1012.0 - 0.0 - Partly cloudy - - - - -
24/05:30am 20.8 CALM 0 0 1011.7 - 0.0 - Partly cloudy - - - - -
24/05:00am 21.1 S 3 4 1011.6 - 0.0 - Partly cloudy - - - - -
24/04:30am 21.3 S 1 4 1011.5 - 0.0 - Partly cloudy - - - - -
24/04:00am 21.3 SW 2 4 1011.4 - 0.0 - Partly cloudy - - - - -
24/03:30am 22.1 SE 4 5 1011.3 - 0.0 - - - - - - -
24/03:00am 22.6 SE 3 4 1011.5 - 0.0 - Partly cloudy - - - - -
24/02:30am 23.0 SSE 3 5 1011.8 - 0.0 - Partly cloudy - - - - -
24/02:00am 22.9 CALM 0 3 1012.0 - 0.0 - Partly cloudy - - - - -
24/01:30am 24.0 SE 6 11 1012.2 - 0.0 - Partly cloudy - - - - -
24/01:00am 24.0 ESE 5 9 1012.3 - 0.0 - Partly cloudy - - - - -
24/12:30am 22.0 CALM 0 0 1012.4 - 0.0 - Partly cloudy - - - - -
24/12:00am 22.3 CALM 0 0 1012.5 - 0.0 - Partly cloudy - - - - -
 
Date/Time
EST
Temp
°C
Wind Pressure Rain since
9am
mm
Weather Cloud Vis
km
Sea
Height
m
Swell
Dir  Spd
kts
Gust
kts
hPa Trend Height
m
Period
s
Dir
23/11:00pm 22.0 CALM 0 0 1012.8 - 0.0 - Partly cloudy - - - - -
23/10:00pm 22.1 CALM 0 0 1013.1 - 0.0 - Partly cloudy - - - - -
23/09:30pm 22.3 CALM 0 0 1013.0 - 0.0 - Partly cloudy - - - - -
23/09:00pm 22.5 CALM 0 0 1012.6 - 0.0 - Partly cloudy - - - - -
23/08:30pm 22.9 CALM 0 0 1012.5 - 0.0 - Partly cloudy - - - - -
23/08:00pm 22.8 CALM 0 0 1012.0 - 0.0 - Partly cloudy - - - - -
23/07:30pm 23.9 SE 1 3 1011.8 - 0.0 - Partly cloudy - - - - -
23/07:00pm 24.4 ESE 5 7 1011.5 - 0.0 - - - - - - -
23/06:30pm 24.9 ESE 8 10 1011.3 - 0.0 - Partly cloudy - - - - -
23/06:00pm 25.4 ESE 7 11 1011.1 - 0.0 - Partly cloudy - - - - -
23/05:30pm 26.4 ESE 9 13 1011.0 - 0.0 - Partly cloudy - - - - -
23/05:00pm 26.4 ESE 11 16 1010.7 - 0.0 - Partly cloudy - - - - -
23/04:30pm 26.7 ESE 12 19 1010.5 - 0.0 - Partly cloudy - - - - -
23/04:00pm 27.4 ESE 11 16 1010.3 - 0.0 - - - - - - -
23/03:30pm 27.8 ESE 11 17 1010.3 - 0.0 - - - - - - -
23/03:00pm 28.1 E 10 16 1010.5 - 0.0 Fine - - - - - -
23/02:30pm 28.9 ESE 12 17 1010.7 - 0.0 - - - - - - -
23/02:00pm 28.7 E 10 15 1010.9 - 0.0 - - - - - - -
23/01:30pm 28.4 ESE 11 19 1011.4 - 0.0 - - - - - - -
23/01:00pm 28.5 ESE 10 17 1011.9 - 0.0 - - - - - - -
23/12:30pm 28.7 ESE 9 12 1012.3 - 0.0 - Partly cloudy - - - - -
23/12:00pm 27.8 ESE 13 19 1012.6 - 0.0 Fine - - - - - -
23/11:30am 28.6 ESE 11 17 1012.8 - 0.0 - Partly cloudy - - - - -
23/11:00am 28.0 ESE 12 16 1013.2 - 0.0 - - - - - - -
23/10:30am 27.6 ESE 13 19 1013.4 - 0.0 - - - - - - -
23/10:00am 27.0 ESE 12 17 1013.5 - 0.0 - Partly cloudy - - - - -
23/09:30am 26.2 ESE 10 15 1013.7 - 0.0 - Partly cloudy - - - - -
23/09:00am 25.2 SSE 7 10 1013.6 - 0.6 Fine Partly cloudy - - - - -
23/08:30am 24.3 SSE 6 8 1013.5 - 0.6 - Partly cloudy - - - - -
23/08:00am 23.4 ESE 3 4 1013.3 - 0.6 - Partly cloudy - - - - -
23/07:30am 22.7 SE 4 5 1013.0 - 0.6 - Partly cloudy - - - - -
23/07:00am 22.3 SE 3 7 1012.9 - 0.6 - Cloudy - - - - -
23/06:30am 21.8 CALM 0 0 1012.4 - 0.6 - Partly cloudy - - - - -
23/06:00am 22.0 ESE 3 4 1012.2 - 0.4 Fine Partly cloudy - - - - -
23/05:30am 21.7 ESE 1 4 1011.7 - 0.4 - Partly cloudy - - - - -
23/04:00am 21.4 CALM 0 0 1011.5 - 0.4 - Partly cloudy - - - - -
23/03:00am 21.7 CALM 0 0 1011.6 - 0.4 - Partly cloudy - - - - -
23/02:30am 21.8 CALM 0 0 1011.9 - 0.4 - Partly cloudy - - - - -
23/02:00am 21.7 CALM 0 0 1012.1 - 0.4 - Cloudy - - - - -
23/01:30am 21.6 CALM 0 0 1012.3 - 0.4 - Partly cloudy - - - - -
23/01:00am 21.6 CALM 0 0 1012.4 - 0.4 - Partly cloudy - - - - -
23/12:30am 21.7 CALM 0 0 1012.6 - 0.4 - Partly cloudy - - - - -
23/12:00am 21.8 CALM 0 0 1012.8 - 0.4 - Partly cloudy - - - - -
 
Date/Time
EST
Temp
°C
Wind Pressure Rain since
9am
mm
Weather Cloud Vis
km
Sea
Height
m
Swell
Dir  Spd
kts
Gust
kts
hPa Trend Height
m
Period
s
Dir
22/11:30pm 22.4 CALM 0 0 1012.9 - 0.4 - Partly cloudy - - - - -
22/11:00pm 22.3 CALM 0 0 1013.2 - 0.4 - Partly cloudy - - - - -
22/10:30pm 22.2 CALM 0 0 1013.2 - 0.4 - Partly cloudy - - - - -
22/10:00pm 22.4 S 2 3 1013.1 - 0.4 - Partly cloudy - - - - -
22/09:30pm 21.9 CALM 0 0 1012.8 - 0.4 - Partly cloudy - - - - -
22/09:00pm 21.7 CALM 0 0 1012.7 - 0.4 - Partly cloudy - - - - -
22/08:30pm 22.0 CALM 0 0 1012.5 - 0.4 - Partly cloudy - - - - -
22/08:00pm 22.1 S 2 4 1012.3 - 0.4 - Partly cloudy - - - - -
22/07:30pm 23.3 SSE 3 4 1011.9 - 0.4 - Partly cloudy - - - - -
22/07:00pm 23.7 SSE 4 5 1011.8 - 0.4 - Partly cloudy - - - - -
22/06:30pm 24.3 SSE 6 8 1011.6 - 0.4 - Partly cloudy - - - - -
22/06:00pm 25.1 SSE 7 10 1011.3 - 0.4 - Partly cloudy - - - - -
22/05:30pm 25.9 SE 9 12 1011.2 - 0.4 - Partly cloudy - - - - -
22/05:00pm 26.8 SE 11 14 1011.2 - 0.4 - Partly cloudy - - - - -
22/04:30pm 26.5 ESE 9 15 1011.2 - 0.4 - Partly cloudy - - - - -
22/04:00pm 27.1 SE 12 18 1011.3 - 0.4 - Partly cloudy - - - - -
22/03:30pm 27.2 ESE 13 18 1011.4 - 0.4 - Partly cloudy - - - - -
22/03:00pm 28.3 ESE 12 18 1011.5 - 0.4 Fine Partly cloudy - - - - -
22/02:30pm 27.3 ESE 12 18 1011.8 - 0.4 - Partly cloudy - - - - -
22/02:00pm 27.9 ESE 13 20 1012.1 - 0.4 - Partly cloudy - - - - -
22/01:30pm 28.2 ESE 13 19 1012.5 - 0.4 - Partly cloudy - - - - -
22/01:00pm 28.0 ESE 12 20 1013.1 - 0.4 - Cloudy - - - - -
22/12:30pm 27.6 ESE 11 18 1013.5 - 0.4 - Partly cloudy - - - - -
22/12:00pm 28.7 ESE 12 19 1013.8 - 0.2 Fine Partly cloudy - - - - -
22/11:30am 27.5 ESE 10 15 1014.1 - 0.2 - Partly cloudy - - - - -
22/11:00am 25.8 ESE 6 11 1014.3 - 0.2 - Partly cloudy - - - - -
22/10:30am 24.6 E 8 13 1014.4 - 0.2 - Partly cloudy - - - - -
22/10:00am 26.4 E 10 16 1014.2 - 0.0 - Partly cloudy - - - - -
22/09:30am 26.0 ESE 10 15 1014.3 - 0.0 - Partly cloudy - - - - -
22/09:00am 25.8 E 10 - 1014.1 - 0.2 Fine - - - - - -
22/08:00am 24.5 SE 8 12 1013.4 - 0.2 - Partly cloudy - - - - -
22/06:30am 24.4 ESE 8 11 1012.5 - 0.0 - Partly cloudy - - - - -
22/06:00am 24.3 SE 9 13 1012.2 - 0.0 Fine Partly cloudy - - - - -
22/05:30am 24.6 ESE 8 13 1012.2 - 0.0 - Partly cloudy - - - - -
22/05:00am 24.8 ESE 9 13 1011.9 - 0.0 - Partly cloudy - - - - -
22/04:30am 24.6 ESE 7 9 1011.8 - 0.0 - Partly cloudy - - - - -
22/03:30am 24.6 ESE 8 12 1011.9 - 0.0 - Partly cloudy - - - - -
22/03:00am 24.5 SE 9 11 1012.1 - 0.0 - Partly cloudy - - - - -
22/02:00am 24.5 ESE 6 9 1012.5 - 0.0 - Partly cloudy - - - - -
22/01:30am 24.8 ESE 8 11 1012.8 - 0.0 - Partly cloudy - - - - -
22/01:00am 24.8 ESE 8 11 1013.0 - 0.0 - Partly cloudy - - - - -
22/12:30am 24.8 ESE 8 11 1013.2 - 0.0 - Partly cloudy - - - - -
 
Date/Time
EST
Temp
°C
Wind Pressure Rain since
9am
mm
Weather Cloud Vis
km
Sea
Height
m
Swell
Dir  Spd
kts
Gust
kts
hPa Trend Height
m
Period
s
Dir
21/11:30pm 24.9 ESE 9 12 1013.3 - 0.0 - Partly cloudy - - - - -
21/09:30pm 24.3 SSE 6 8 1013.2 - 0.0 - Partly cloudy - - - - -
21/09:00pm 24.6 SSE 6 8 1013.3 - 0.0 - Partly cloudy - - - - -
21/08:30pm 24.8 SSE 7 10 1012.9 - 0.0 - Partly cloudy - - - - -
21/08:00pm 25.0 SE 8 10 1012.7 - 0.0 - Partly cloudy - - - - -
21/07:00pm 25.3 SE 8 11 1012.0 - 0.0 - Partly cloudy - - - - -
21/06:30pm 25.7 ESE 8 12 1011.9 - 0.0 - Partly cloudy - - - - -
21/06:00pm 26.0 ESE 10 15 1011.7 - 0.0 - Partly cloudy - - - - -
21/05:30pm 26.4 ESE 11 17 1011.5 - 0.0 - Partly cloudy - - - - -
21/05:00pm 26.9 ESE 10 13 1011.3 - 0.0 - Partly cloudy - - - - -
21/04:30pm 27.2 ESE 11 15 1011.1 - 0.0 - Partly cloudy - - - - -
21/04:00pm 28.0 SE 12 17 1011.0 - 0.0 - Partly cloudy - - - - -
21/03:30pm 28.2 ESE 11 17 1011.2 - 0.0 - Partly cloudy - - - - -
21/03:00pm 28.5 SE 15 20 1011.3 - 0.0 - Partly cloudy - - - - -

Other Formats:

Comma delimited format used in spreadsheet applications
http://www.bom.gov.au/fwo/IDQ60701/IDQ60701.94186.axf

JavaScript Object Notation format (JSON) in row-major order
http://www.bom.gov.au/fwo/IDQ60701/IDQ60701.94186.json